sensor_id;sensor_type;location;lat;lon;timestamp;pressure;altitude;pressure_sealevel;temperature;humidity
13456;BME280;6800;50.940;6.940;2023-01-29T00:01:46;102302.88;;;9.74;39.59
13456;BME280;6800;50.940;6.940;2023-01-29T00:05:48;102294.31;;;9.71;39.21
13456;BME280;6800;50.940;6.940;2023-01-29T00:09:49;102291.53;;;9.77;39.29
13456;BME280;6800;50.940;6.940;2023-01-29T00:13:51;102287.19;;;9.76;38.92
13456;BME280;6800;50.940;6.940;2023-01-29T00:17:53;102287.28;;;9.73;39.41
13456;BME280;6800;50.940;6.940;2023-01-29T00:21:54;102287.00;;;9.83;39.62
13456;BME280;6800;50.940;6.940;2023-01-29T00:25:58;102279.94;;;9.87;39.35
13456;BME280;6800;50.940;6.940;2023-01-29T00:30:00;102274.66;;;9.90;38.82
13456;BME280;6800;50.940;6.940;2023-01-29T00:34:12;102267.06;;;9.81;39.50
13456;BME280;6800;50.940;6.940;2023-01-29T00:38:14;102271.53;;;9.77;39.88
13456;BME280;6800;50.940;6.940;2023-01-29T00:42:15;102258.25;;;9.85;39.75
13456;BME280;6800;50.940;6.940;2023-01-29T00:46:35;102258.81;;;9.96;39.48
13456;BME280;6800;50.940;6.940;2023-01-29T00:50:37;102243.25;;;9.93;39.46
13456;BME280;6800;50.940;6.940;2023-01-29T00:54:38;102234.97;;;9.79;39.01
13456;BME280;6800;50.940;6.940;2023-01-29T00:58:39;102248.66;;;9.87;39.24
13456;BME280;6800;50.940;6.940;2023-01-29T01:02:41;102252.28;;;9.81;39.55
13456;BME280;6800;50.940;6.940;2023-01-29T01:07:01;102253.97;;;9.84;39.76
13456;BME280;6800;50.940;6.940;2023-01-29T01:11:05;102247.88;;;9.83;39.19
13456;BME280;6800;50.940;6.940;2023-01-29T01:15:06;102247.25;;;9.75;39.29
13456;BME280;6800;50.940;6.940;2023-01-29T01:19:08;102248.25;;;9.71;39.54
13456;BME280;6800;50.940;6.940;2023-01-29T01:23:10;102246.34;;;9.76;39.64
13456;BME280;6800;50.940;6.940;2023-01-29T01:27:12;102237.63;;;9.77;39.34
13456;BME280;6800;50.940;6.940;2023-01-29T01:31:13;102240.31;;;9.74;39.30
13456;BME280;6800;50.940;6.940;2023-01-29T01:35:15;102249.97;;;9.71;39.69
13456;BME280;6800;50.940;6.940;2023-01-29T01:39:17;102256.25;;;9.64;39.66
13456;BME280;6800;50.940;6.940;2023-01-29T01:43:18;102263.09;;;9.68;39.75
13456;BME280;6800;50.940;6.940;2023-01-29T01:47:25;102263.03;;;9.69;39.91
13456;BME280;6800;50.940;6.940;2023-01-29T01:51:29;102261.47;;;9.64;39.66
13456;BME280;6800;50.940;6.940;2023-01-29T01:55:33;102251.22;;;9.58;39.84
13456;BME280;6800;50.940;6.940;2023-01-29T01:59:37;102240.78;;;9.58;40.07
13456;BME280;6800;50.940;6.940;2023-01-29T02:03:53;102241.38;;;9.67;40.12
13456;BME280;6800;50.940;6.940;2023-01-29T02:08:18;102231.91;;;9.65;40.19
13456;BME280;6800;50.940;6.940;2023-01-29T02:12:43;102224.09;;;9.65;39.84
13456;BME280;6800;50.940;6.940;2023-01-29T02:16:45;102228.78;;;9.52;40.66
13456;BME280;6800;50.940;6.940;2023-01-29T02:30:08;102246.25;;;9.49;40.37
13456;BME280;6800;50.940;6.940;2023-01-29T02:34:24;102248.50;;;9.30;40.02
13456;BME280;6800;50.940;6.940;2023-01-29T02:38:44;102250.16;;;9.32;39.89
13456;BME280;6800;50.940;6.940;2023-01-29T02:42:53;102249.34;;;9.30;40.36
13456;BME280;6800;50.940;6.940;2023-01-29T02:46:59;102246.06;;;9.24;40.79
13456;BME280;6800;50.940;6.940;2023-01-29T02:51:09;102256.53;;;9.21;41.58
13456;BME280;6800;50.940;6.940;2023-01-29T02:55:15;102267.09;;;9.49;40.57
13456;BME280;6800;50.940;6.940;2023-01-29T02:59:22;102269.81;;;9.44;41.42
13456;BME280;6800;50.940;6.940;2023-01-29T03:03:39;102268.88;;;9.47;40.82
13456;BME280;6800;50.940;6.940;2023-01-29T03:07:47;102274.34;;;9.37;40.47
13456;BME280;6800;50.940;6.940;2023-01-29T03:11:54;102294.47;;;9.32;41.26
13456;BME280;6800;50.940;6.940;2023-01-29T03:16:07;102294.06;;;9.14;41.07
13456;BME280;6800;50.940;6.940;2023-01-29T03:20:15;102291.84;;;9.32;40.81
13456;BME280;6800;50.940;6.940;2023-01-29T03:24:22;102272.16;;;9.21;40.38
13456;BME280;6800;50.940;6.940;2023-01-29T03:28:46;102270.91;;;9.03;40.55
13456;BME280;6800;50.940;6.940;2023-01-29T03:33:08;102263.91;;;9.05;40.67
13456;BME280;6800;50.940;6.940;2023-01-29T03:37:32;102248.28;;;9.05;40.65
13456;BME280;6800;50.940;6.940;2023-01-29T03:41:51;102242.94;;;9.10;40.63
13456;BME280;6800;50.940;6.940;2023-01-29T03:46:02;102238.91;;;8.98;40.79
13456;BME280;6800;50.940;6.940;2023-01-29T03:50:18;102252.69;;;8.67;40.78
13456;BME280;6800;50.940;6.940;2023-01-29T03:54:32;102250.56;;;8.84;40.81
13456;BME280;6800;50.940;6.940;2023-01-29T03:58:44;102265.97;;;8.93;39.79
13456;BME280;6800;50.940;6.940;2023-01-29T04:07:18;102274.69;;;8.89;40.10
13456;BME280;6800;50.940;6.940;2023-01-29T04:11:24;102263.31;;;8.94;39.92
13456;BME280;6800;50.940;6.940;2023-01-29T04:15:29;102262.84;;;8.77;40.67
13456;BME280;6800;50.940;6.940;2023-01-29T04:19:34;102257.00;;;8.68;40.39
13456;BME280;6800;50.940;6.940;2023-01-29T04:23:36;102256.69;;;8.81;41.03
13456;BME280;6800;50.940;6.940;2023-01-29T04:27:49;102249.13;;;8.71;40.59
13456;BME280;6800;50.940;6.940;2023-01-29T04:32:31;102222.84;;;8.81;40.60
13456;BME280;6800;50.940;6.940;2023-01-29T04:36:45;102218.88;;;9.00;40.58
13456;BME280;6800;50.940;6.940;2023-01-29T04:45:26;102225.75;;;8.68;40.42
13456;BME280;6800;50.940;6.940;2023-01-29T04:58:18;102226.63;;;9.03;39.86
13456;BME280;6800;50.940;6.940;2023-01-29T05:02:25;102210.84;;;8.76;40.77
13456;BME280;6800;50.940;6.940;2023-01-29T05:06:29;102209.84;;;8.44;40.56
13456;BME280;6800;50.940;6.940;2023-01-29T05:10:32;102202.38;;;8.31;41.03
13456;BME280;6800;50.940;6.940;2023-01-29T05:14:34;102198.19;;;8.60;40.51
13456;BME280;6800;50.940;6.940;2023-01-29T05:18:37;102182.81;;;8.51;40.50
13456;BME280;6800;50.940;6.940;2023-01-29T05:22:40;102212.84;;;8.28;40.97
13456;BME280;6800;50.940;6.940;2023-01-29T05:26:43;102214.06;;;8.50;40.78
13456;BME280;6800;50.940;6.940;2023-01-29T05:31:03;102206.97;;;8.55;40.68
13456;BME280;6800;50.940;6.940;2023-01-29T05:35:05;102201.69;;;8.59;41.11
13456;BME280;6800;50.940;6.940;2023-01-29T05:39:06;102200.38;;;8.02;41.23
13456;BME280;6800;50.940;6.940;2023-01-29T05:47:20;102191.81;;;8.37;40.73
13456;BME280;6800;50.940;6.940;2023-01-29T05:51:21;102204.78;;;8.38;41.07
13456;BME280;6800;50.940;6.940;2023-01-29T05:55:22;102192.38;;;8.11;40.94
13456;BME280;6800;50.940;6.940;2023-01-29T05:59:24;102198.09;;;8.28;41.46
13456;BME280;6800;50.940;6.940;2023-01-29T06:03:25;102198.72;;;8.39;40.29
13456;BME280;6800;50.940;6.940;2023-01-29T06:07:26;102206.75;;;8.29;40.99
13456;BME280;6800;50.940;6.940;2023-01-29T06:11:28;102202.19;;;7.59;41.57
13456;BME280;6800;50.940;6.940;2023-01-29T06:15:29;102207.78;;;8.20;41.46
13456;BME280;6800;50.940;6.940;2023-01-29T06:19:31;102200.66;;;8.30;40.40
13456;BME280;6800;50.940;6.940;2023-01-29T06:23:32;102205.94;;;8.27;40.24
13456;BME280;6800;50.940;6.940;2023-01-29T06:27:33;102200.50;;;8.36;41.10
13456;BME280;6800;50.940;6.940;2023-01-29T06:31:35;102196.47;;;8.23;40.98
13456;BME280;6800;50.940;6.940;2023-01-29T06:35:39;102210.59;;;8.11;40.08
13456;BME280;6800;50.940;6.940;2023-01-29T06:39:41;102221.72;;;8.18;41.20
13456;BME280;6800;50.940;6.940;2023-01-29T06:43:43;102225.41;;;8.06;40.78
13456;BME280;6800;50.940;6.940;2023-01-29T06:47:45;102244.00;;;8.29;40.72
13456;BME280;6800;50.940;6.940;2023-01-29T06:51:46;102262.84;;;8.40;40.08
13456;BME280;6800;50.940;6.940;2023-01-29T06:55:51;102268.75;;;8.47;40.58
13456;BME280;6800;50.940;6.940;2023-01-29T06:59:53;102261.47;;;8.62;40.06
13456;BME280;6800;50.940;6.940;2023-01-29T07:03:54;102257.56;;;8.43;40.39
13456;BME280;6800;50.940;6.940;2023-01-29T07:07:55;102256.41;;;8.56;40.14
13456;BME280;6800;50.940;6.940;2023-01-29T07:11:57;102238.69;;;8.34;40.07
13456;BME280;6800;50.940;6.940;2023-01-29T07:16:01;102248.50;;;7.80;41.08
13456;BME280;6800;50.940;6.940;2023-01-29T07:20:04;102243.41;;;8.55;40.29
13456;BME280;6800;50.940;6.940;2023-01-29T07:24:06;102246.97;;;8.52;40.18
13456;BME280;6800;50.940;6.940;2023-01-29T07:28:07;102248.63;;;8.55;40.44
13456;BME280;6800;50.940;6.940;2023-01-29T07:32:09;102249.03;;;8.75;40.11
13456;BME280;6800;50.940;6.940;2023-01-29T07:36:11;102242.69;;;8.50;41.09
13456;BME280;6800;50.940;6.940;2023-01-29T07:40:13;102246.38;;;8.40;40.37
13456;BME280;6800;50.940;6.940;2023-01-29T07:44:15;102231.84;;;9.03;39.78
13456;BME280;6800;50.940;6.940;2023-01-29T07:48:17;102236.88;;;8.76;40.24
13456;BME280;6800;50.940;6.940;2023-01-29T07:52:18;102247.84;;;8.51;40.01
13456;BME280;6800;50.940;6.940;2023-01-29T07:56:22;102255.75;;;8.84;39.13
13456;BME280;6800;50.940;6.940;2023-01-29T08:00:24;102235.78;;;8.84;39.37
13456;BME280;6800;50.940;6.940;2023-01-29T08:04:25;102234.38;;;8.70;39.64
13456;BME280;6800;50.940;6.940;2023-01-29T08:08:27;102223.44;;;8.92;39.65
13456;BME280;6800;50.940;6.940;2023-01-29T08:12:28;102225.28;;;8.87;39.08
13456;BME280;6800;50.940;6.940;2023-01-29T08:16:29;102237.63;;;8.79;38.63
13456;BME280;6800;50.940;6.940;2023-01-29T08:20:31;102233.59;;;9.03;38.73
13456;BME280;6800;50.940;6.940;2023-01-29T08:24:32;102226.47;;;8.76;39.10
13456;BME280;6800;50.940;6.940;2023-01-29T08:28:54;102229.06;;;9.09;38.70
13456;BME280;6800;50.940;6.940;2023-01-29T08:32:55;102227.78;;;8.92;39.06
13456;BME280;6800;50.940;6.940;2023-01-29T08:36:57;102237.41;;;9.22;38.62
13456;BME280;6800;50.940;6.940;2023-01-29T08:40:58;102237.44;;;8.88;38.76
13456;BME280;6800;50.940;6.940;2023-01-29T08:45:00;102230.03;;;9.37;40.16
13456;BME280;6800;50.940;6.940;2023-01-29T08:49:01;102229.59;;;9.22;40.90
13456;BME280;6800;50.940;6.940;2023-01-29T08:53:05;102231.34;;;9.21;39.33
13456;BME280;6800;50.940;6.940;2023-01-29T08:57:10;102228.50;;;8.61;40.03
13456;BME280;6800;50.940;6.940;2023-01-29T09:01:12;102220.94;;;8.88;39.42
13456;BME280;6800;50.940;6.940;2023-01-29T09:05:14;102222.25;;;9.04;39.18
13456;BME280;6800;50.940;6.940;2023-01-29T09:09:16;102226.97;;;8.90;39.65
13456;BME280;6800;50.940;6.940;2023-01-29T09:13:18;102227.56;;;9.01;39.52
13456;BME280;6800;50.940;6.940;2023-01-29T09:17:20;102219.69;;;9.02;40.41
13456;BME280;6800;50.940;6.940;2023-01-29T09:21:21;102218.03;;;9.32;39.40
13456;BME280;6800;50.940;6.940;2023-01-29T09:25:22;102218.41;;;9.81;38.57
13456;BME280;6800;50.940;6.940;2023-01-29T09:29:24;102201.44;;;10.25;38.21
13456;BME280;6800;50.940;6.940;2023-01-29T09:33:25;102200.72;;;10.48;37.75
13456;BME280;6800;50.940;6.940;2023-01-29T09:37:27;102198.22;;;9.88;38.66
13456;BME280;6800;50.940;6.940;2023-01-29T09:41:42;102190.19;;;10.23;38.24
13456;BME280;6800;50.940;6.940;2023-01-29T09:45:55;102199.31;;;10.08;38.13
13456;BME280;6800;50.940;6.940;2023-01-29T09:50:01;102193.19;;;10.09;38.22
13456;BME280;6800;50.940;6.940;2023-01-29T09:54:16;102189.53;;;10.16;37.93
13456;BME280;6800;50.940;6.940;2023-01-29T09:58:37;102171.34;;;10.67;36.99
13456;BME280;6800;50.940;6.940;2023-01-29T10:02:52;102173.75;;;9.63;39.15
13456;BME280;6800;50.940;6.940;2023-01-29T10:11:45;102137.72;;;10.32;38.08
13456;BME280;6800;50.940;6.940;2023-01-29T10:20:46;102138.28;;;10.68;37.81
13456;BME280;6800;50.940;6.940;2023-01-29T10:24:57;102147.91;;;11.40;36.79
13456;BME280;6800;50.940;6.940;2023-01-29T10:29:04;102143.97;;;11.28;36.44
13456;BME280;6800;50.940;6.940;2023-01-29T10:33:17;102148.56;;;11.69;35.68
13456;BME280;6800;50.940;6.940;2023-01-29T10:37:25;102145.91;;;11.46;35.89
13456;BME280;6800;50.940;6.940;2023-01-29T10:50:11;102141.66;;;11.44;35.55
13456;BME280;6800;50.940;6.940;2023-01-29T10:54:24;102131.91;;;11.72;35.52
13456;BME280;6800;50.940;6.940;2023-01-29T11:02:34;102114.13;;;11.57;37.57
13456;BME280;6800;50.940;6.940;2023-01-29T11:06:36;102115.28;;;11.27;36.80
13456;BME280;6800;50.940;6.940;2023-01-29T11:11:06;102105.66;;;11.04;37.10
13456;BME280;6800;50.940;6.940;2023-01-29T11:19:35;102081.53;;;12.10;35.60
13456;BME280;6800;50.940;6.940;2023-01-29T11:23:37;102076.78;;;12.20;34.88
13456;BME280;6800;50.940;6.940;2023-01-29T11:27:43;102063.56;;;11.35;36.08
13456;BME280;6800;50.940;6.940;2023-01-29T11:31:45;102070.16;;;10.74;37.38
13456;BME280;6800;50.940;6.940;2023-01-29T11:35:47;102067.66;;;11.19;37.18
13456;BME280;6800;50.940;6.940;2023-01-29T11:39:48;102056.97;;;11.25;37.00
13456;BME280;6800;50.940;6.940;2023-01-29T11:43:50;102043.84;;;11.26;36.82
13456;BME280;6800;50.940;6.940;2023-01-29T11:47:53;102043.81;;;11.94;35.62
13456;BME280;6800;50.940;6.940;2023-01-29T11:51:58;102036.13;;;12.11;35.35
13456;BME280;6800;50.940;6.940;2023-01-29T11:56:06;102027.63;;;12.26;34.76
13456;BME280;6800;50.940;6.940;2023-01-29T12:00:25;102030.59;;;12.59;34.59
13456;BME280;6800;50.940;6.940;2023-01-29T12:04:28;102010.38;;;12.81;34.39
13456;BME280;6800;50.940;6.940;2023-01-29T12:08:36;102005.59;;;11.90;35.71
13456;BME280;6800;50.940;6.940;2023-01-29T12:12:40;101996.22;;;12.26;34.96
13456;BME280;6800;50.940;6.940;2023-01-29T12:16:55;101992.97;;;12.21;35.03
13456;BME280;6800;50.940;6.940;2023-01-29T12:21:25;101978.81;;;12.45;34.67
13456;BME280;6800;50.940;6.940;2023-01-29T12:25:35;101977.25;;;12.80;33.99
13456;BME280;6800;50.940;6.940;2023-01-29T12:29:47;101962.69;;;12.93;33.89
13456;BME280;6800;50.940;6.940;2023-01-29T12:34:00;101945.06;;;12.58;34.26
13456;BME280;6800;50.940;6.940;2023-01-29T12:38:19;101937.88;;;12.82;34.33
13456;BME280;6800;50.940;6.940;2023-01-29T12:42:23;101927.38;;;12.24;35.28
13456;BME280;6800;50.940;6.940;2023-01-29T12:46:30;101908.00;;;12.67;34.44
13456;BME280;6800;50.940;6.940;2023-01-29T12:50:35;101907.41;;;12.79;34.70
13456;BME280;6800;50.940;6.940;2023-01-29T12:54:46;101882.91;;;12.99;33.98
13456;BME280;6800;50.940;6.940;2023-01-29T12:58:53;101885.72;;;12.38;35.69
13456;BME280;6800;50.940;6.940;2023-01-29T13:03:17;101882.22;;;12.58;34.68
13456;BME280;6800;50.940;6.940;2023-01-29T13:07:27;101878.31;;;13.04;34.52
13456;BME280;6800;50.940;6.940;2023-01-29T13:11:40;101870.75;;;12.61;34.72
13456;BME280;6800;50.940;6.940;2023-01-29T13:15:43;101859.28;;;12.82;35.25
13456;BME280;6800;50.940;6.940;2023-01-29T13:19:48;101860.69;;;12.33;35.09
13456;BME280;6800;50.940;6.940;2023-01-29T13:23:54;101850.16;;;13.43;34.23
13456;BME280;6800;50.940;6.940;2023-01-29T13:27:56;101843.41;;;12.47;35.46
13456;BME280;6800;50.940;6.940;2023-01-29T13:31:59;101834.31;;;12.17;36.15
13456;BME280;6800;50.940;6.940;2023-01-29T13:36:02;101823.44;;;12.82;35.61
13456;BME280;6800;50.940;6.940;2023-01-29T13:40:05;101817.94;;;12.70;36.00
13456;BME280;6800;50.940;6.940;2023-01-29T13:44:19;101811.84;;;12.69;35.44
13456;BME280;6800;50.940;6.940;2023-01-29T13:48:26;101807.88;;;13.49;34.76
13456;BME280;6800;50.940;6.940;2023-01-29T14:04:41;101802.81;;;13.12;34.85
13456;BME280;6800;50.940;6.940;2023-01-29T14:08:43;101813.22;;;13.48;34.19
13456;BME280;6800;50.940;6.940;2023-01-29T14:12:46;101811.91;;;13.22;35.28
13456;BME280;6800;50.940;6.940;2023-01-29T14:16:48;101810.00;;;13.92;33.80
13456;BME280;6800;50.940;6.940;2023-01-29T14:20:56;101800.84;;;13.84;33.98
13456;BME280;6800;50.940;6.940;2023-01-29T14:25:01;101807.88;;;13.83;34.09
13456;BME280;6800;50.940;6.940;2023-01-29T14:29:17;101808.53;;;14.20;33.43
13456;BME280;6800;50.940;6.940;2023-01-29T14:33:35;101799.66;;;13.89;33.86
13456;BME280;6800;50.940;6.940;2023-01-29T14:37:39;101797.53;;;13.80;34.11
13456;BME280;6800;50.940;6.940;2023-01-29T14:41:41;101800.59;;;13.88;34.62
13456;BME280;6800;50.940;6.940;2023-01-29T14:45:43;101789.81;;;14.10;34.01
13456;BME280;6800;50.940;6.940;2023-01-29T14:49:58;101789.91;;;13.76;34.20
13456;BME280;6800;50.940;6.940;2023-01-29T14:54:10;101788.84;;;13.46;35.06
13456;BME280;6800;50.940;6.940;2023-01-29T14:58:20;101795.66;;;13.99;33.82
13456;BME280;6800;50.940;6.940;2023-01-29T15:02:30;101801.47;;;14.04;34.02
13456;BME280;6800;50.940;6.940;2023-01-29T15:06:44;101795.38;;;14.37;33.37
13456;BME280;6800;50.940;6.940;2023-01-29T15:10:57;101800.16;;;14.46;33.10
13456;BME280;6800;50.940;6.940;2023-01-29T15:15:49;101794.16;;;14.27;33.17
13456;BME280;6800;50.940;6.940;2023-01-29T15:19:52;101787.09;;;14.60;33.08
13456;BME280;6800;50.940;6.940;2023-01-29T15:24:05;101784.56;;;14.58;33.22
13456;BME280;6800;50.940;6.940;2023-01-29T15:28:09;101788.69;;;14.62;33.19
13456;BME280;6800;50.940;6.940;2023-01-29T15:32:24;101791.66;;;14.72;32.54
13456;BME280;6800;50.940;6.940;2023-01-29T15:36:30;101783.63;;;14.44;33.01
13456;BME280;6800;50.940;6.940;2023-01-29T15:40:33;101786.41;;;14.41;33.12
13456;BME280;6800;50.940;6.940;2023-01-29T15:44:34;101783.53;;;14.45;33.22
13456;BME280;6800;50.940;6.940;2023-01-29T15:48:41;101776.41;;;14.47;33.06
13456;BME280;6800;50.940;6.940;2023-01-29T15:52:47;101779.19;;;14.29;33.38
13456;BME280;6800;50.940;6.940;2023-01-29T15:56:51;101777.34;;;14.31;33.44
13456;BME280;6800;50.940;6.940;2023-01-29T16:00:54;101775.94;;;14.24;33.27
13456;BME280;6800;50.940;6.940;2023-01-29T16:04:57;101768.75;;;14.27;33.27
13456;BME280;6800;50.940;6.940;2023-01-29T16:08:59;101767.72;;;14.14;33.71
13456;BME280;6800;50.940;6.940;2023-01-29T16:13:01;101766.97;;;14.12;34.16
13456;BME280;6800;50.940;6.940;2023-01-29T16:17:21;101767.13;;;14.09;33.65
13456;BME280;6800;50.940;6.940;2023-01-29T16:21:31;101767.59;;;14.33;33.75
13456;BME280;6800;50.940;6.940;2023-01-29T16:25:36;101770.72;;;13.91;33.85
13456;BME280;6800;50.940;6.940;2023-01-29T16:29:38;101770.06;;;14.03;33.89
13456;BME280;6800;50.940;6.940;2023-01-29T16:33:42;101764.63;;;14.06;33.92
13456;BME280;6800;50.940;6.940;2023-01-29T16:37:46;101766.97;;;14.28;34.09
13456;BME280;6800;50.940;6.940;2023-01-29T16:42:19;101756.88;;;14.20;34.50
13456;BME280;6800;50.940;6.940;2023-01-29T16:46:24;101757.59;;;14.39;33.61
13456;BME280;6800;50.940;6.940;2023-01-29T16:50:31;101747.34;;;14.35;33.87
13456;BME280;6800;50.940;6.940;2023-01-29T16:54:41;101753.66;;;13.99;34.57
13456;BME280;6800;50.940;6.940;2023-01-29T16:58:48;101760.91;;;13.94;34.87
13456;BME280;6800;50.940;6.940;2023-01-29T17:02:54;101751.94;;;13.98;35.06
13456;BME280;6800;50.940;6.940;2023-01-29T17:06:58;101751.84;;;14.00;35.22
13456;BME280;6800;50.940;6.940;2023-01-29T17:11:01;101741.09;;;14.04;34.54
13456;BME280;6800;50.940;6.940;2023-01-29T17:15:22;101742.91;;;13.71;34.84
13456;BME280;6800;50.940;6.940;2023-01-29T17:19:26;101725.50;;;13.86;34.73
13456;BME280;6800;50.940;6.940;2023-01-29T17:23:30;101741.19;;;13.20;35.95
13456;BME280;6800;50.940;6.940;2023-01-29T17:27:31;101732.66;;;13.67;35.44
13456;BME280;6800;50.940;6.940;2023-01-29T17:31:33;101734.97;;;13.06;35.59
13456;BME280;6800;50.940;6.940;2023-01-29T17:35:34;101720.91;;;13.24;35.67
13456;BME280;6800;50.940;6.940;2023-01-29T17:39:38;101717.19;;;13.28;36.32
13456;BME280;6800;50.940;6.940;2023-01-29T17:43:39;101715.81;;;12.87;36.23
13456;BME280;6800;50.940;6.940;2023-01-29T17:47:41;101705.88;;;12.40;37.43
13456;BME280;6800;50.940;6.940;2023-01-29T17:51:42;101701.63;;;12.91;36.15
13456;BME280;6800;50.940;6.940;2023-01-29T17:55:43;101698.47;;;13.36;35.56
13456;BME280;6800;50.940;6.940;2023-01-29T17:59:45;101697.47;;;13.04;36.23
13456;BME280;6800;50.940;6.940;2023-01-29T18:03:46;101703.16;;;12.78;36.36
13456;BME280;6800;50.940;6.940;2023-01-29T18:07:48;101695.66;;;13.06;36.05
13456;BME280;6800;50.940;6.940;2023-01-29T18:11:52;101699.69;;;12.77;36.67
13456;BME280;6800;50.940;6.940;2023-01-29T18:15:54;101696.25;;;13.11;35.93
13456;BME280;6800;50.940;6.940;2023-01-29T18:19:55;101690.44;;;12.34;36.76
13456;BME280;6800;50.940;6.940;2023-01-29T18:23:58;101692.22;;;13.04;35.82
13456;BME280;6800;50.940;6.940;2023-01-29T18:28:00;101678.44;;;13.17;35.82
13456;BME280;6800;50.940;6.940;2023-01-29T18:32:01;101681.25;;;13.30;35.43
13456;BME280;6800;50.940;6.940;2023-01-29T18:36:04;101674.88;;;13.01;35.89
13456;BME280;6800;50.940;6.940;2023-01-29T18:40:08;101659.09;;;13.53;35.11
13456;BME280;6800;50.940;6.940;2023-01-29T18:44:10;101656.47;;;13.20;35.15
13456;BME280;6800;50.940;6.940;2023-01-29T18:48:11;101649.53;;;12.85;36.08
13456;BME280;6800;50.940;6.940;2023-01-29T18:52:14;101651.84;;;12.91;35.50
13456;BME280;6800;50.940;6.940;2023-01-29T18:56:16;101643.13;;;12.90;35.40
13456;BME280;6800;50.940;6.940;2023-01-29T19:00:18;101639.63;;;12.55;36.55
13456;BME280;6800;50.940;6.940;2023-01-29T19:04:19;101625.78;;;13.05;35.90
13456;BME280;6800;50.940;6.940;2023-01-29T19:08:21;101618.63;;;13.08;36.02
13456;BME280;6800;50.940;6.940;2023-01-29T19:12:22;101614.75;;;12.98;36.28
13456;BME280;6800;50.940;6.940;2023-01-29T19:16:24;101592.94;;;13.15;35.35
13456;BME280;6800;50.940;6.940;2023-01-29T19:20:25;101589.53;;;13.13;36.28
13456;BME280;6800;50.940;6.940;2023-01-29T19:24:27;101593.25;;;12.57;36.76
13456;BME280;6800;50.940;6.940;2023-01-29T19:28:28;101589.28;;;12.85;35.65
13456;BME280;6800;50.940;6.940;2023-01-29T19:32:30;101575.03;;;13.23;36.83
13456;BME280;6800;50.940;6.940;2023-01-29T19:36:32;101580.25;;;12.56;36.48
13456;BME280;6800;50.940;6.940;2023-01-29T19:40:34;101579.13;;;12.79;36.41
13456;BME280;6800;50.940;6.940;2023-01-29T19:44:35;101573.94;;;13.27;36.12
13456;BME280;6800;50.940;6.940;2023-01-29T19:48:39;101576.03;;;13.36;35.98
13456;BME280;6800;50.940;6.940;2023-01-29T19:52:40;101579.00;;;13.30;36.13
13456;BME280;6800;50.940;6.940;2023-01-29T19:56:52;101568.84;;;13.24;36.46
13456;BME280;6800;50.940;6.940;2023-01-29T20:00:58;101570.22;;;13.47;36.19
13456;BME280;6800;50.940;6.940;2023-01-29T20:05:00;101550.09;;;13.32;36.34
13456;BME280;6800;50.940;6.940;2023-01-29T20:09:04;101532.06;;;13.25;37.25
13456;BME280;6800;50.940;6.940;2023-01-29T20:13:05;101525.66;;;13.31;37.46
13456;BME280;6800;50.940;6.940;2023-01-29T20:17:07;101527.19;;;13.35;36.62
13456;BME280;6800;50.940;6.940;2023-01-29T20:21:11;101522.84;;;13.50;36.69
13456;BME280;6800;50.940;6.940;2023-01-29T20:25:12;101531.88;;;13.13;37.23
13456;BME280;6800;50.940;6.940;2023-01-29T20:29:14;101506.28;;;13.18;37.71
13456;BME280;6800;50.940;6.940;2023-01-29T20:33:15;101500.34;;;13.14;38.32
13456;BME280;6800;50.940;6.940;2023-01-29T20:37:17;101488.44;;;12.92;39.06
13456;BME280;6800;50.940;6.940;2023-01-29T20:41:19;101477.34;;;13.19;39.38
13456;BME280;6800;50.940;6.940;2023-01-29T20:45:21;101473.91;;;13.19;39.15
13456;BME280;6800;50.940;6.940;2023-01-29T20:49:23;101468.09;;;12.97;39.31
13456;BME280;6800;50.940;6.940;2023-01-29T20:53:24;101461.78;;;13.32;38.54
13456;BME280;6800;50.940;6.940;2023-01-29T20:57:26;101456.38;;;13.35;38.81
13456;BME280;6800;50.940;6.940;2023-01-29T21:01:27;101450.03;;;13.55;38.54
13456;BME280;6800;50.940;6.940;2023-01-29T21:05:29;101446.84;;;13.18;39.13
13456;BME280;6800;50.940;6.940;2023-01-29T21:09:30;101442.41;;;13.50;38.48
13456;BME280;6800;50.940;6.940;2023-01-29T21:13:32;101447.53;;;13.67;39.23
13456;BME280;6800;50.940;6.940;2023-01-29T21:17:33;101445.19;;;13.63;40.32
13456;BME280;6800;50.940;6.940;2023-01-29T21:21:35;101436.09;;;13.98;38.31
13456;BME280;6800;50.940;6.940;2023-01-29T21:25:36;101433.38;;;13.40;39.73
13456;BME280;6800;50.940;6.940;2023-01-29T21:29:38;101421.47;;;13.64;39.27
13456;BME280;6800;50.940;6.940;2023-01-29T21:33:40;101417.81;;;13.82;39.34
13456;BME280;6800;50.940;6.940;2023-01-29T21:37:42;101422.53;;;14.35;38.14
13456;BME280;6800;50.940;6.940;2023-01-29T21:41:44;101417.78;;;13.53;39.61
13456;BME280;6800;50.940;6.940;2023-01-29T21:46:06;101426.81;;;13.63;39.55
13456;BME280;6800;50.940;6.940;2023-01-29T21:50:14;101415.34;;;13.79;39.08
13456;BME280;6800;50.940;6.940;2023-01-29T21:54:16;101397.94;;;13.78;39.31
13456;BME280;6800;50.940;6.940;2023-01-29T21:58:18;101391.41;;;13.99;38.93
13456;BME280;6800;50.940;6.940;2023-01-29T22:02:21;101408.94;;;14.13;38.26
13456;BME280;6800;50.940;6.940;2023-01-29T22:06:23;101407.50;;;14.37;38.11
13456;BME280;6800;50.940;6.940;2023-01-29T22:10:24;101407.63;;;13.76;39.56
13456;BME280;6800;50.940;6.940;2023-01-29T22:14:26;101421.97;;;14.00;40.21
13456;BME280;6800;50.940;6.940;2023-01-29T22:18:27;101432.00;;;14.38;39.96
13456;BME280;6800;50.940;6.940;2023-01-29T22:22:29;101426.16;;;14.47;40.27
13456;BME280;6800;50.940;6.940;2023-01-29T22:26:30;101429.47;;;14.50;40.09
13456;BME280;6800;50.940;6.940;2023-01-29T22:30:32;101426.75;;;14.52;40.52
13456;BME280;6800;50.940;6.940;2023-01-29T22:34:33;101424.50;;;14.60;40.74
13456;BME280;6800;50.940;6.940;2023-01-29T22:38:35;101421.84;;;14.60;40.61
13456;BME280;6800;50.940;6.940;2023-01-29T22:42:36;101392.56;;;14.66;40.95
13456;BME280;6800;50.940;6.940;2023-01-29T22:46:38;101385.97;;;14.17;41.26
13456;BME280;6800;50.940;6.940;2023-01-29T22:50:40;101405.53;;;14.41;40.28
13456;BME280;6800;50.940;6.940;2023-01-29T22:54:42;101402.91;;;14.55;40.61
13456;BME280;6800;50.940;6.940;2023-01-29T22:58:43;101389.78;;;14.69;40.71